createdAt,value
2022-09-02T00:00:47.754Z,80.70
2022-09-02T00:03:14.555Z,80.96
2022-09-02T00:05:41.451Z,80.38
2022-09-02T00:08:09.156Z,80.14
2022-09-02T00:10:42.702Z,81.26
2022-09-02T00:13:11.988Z,81.48
2022-09-02T00:15:39.688Z,81.33
2022-09-02T00:18:06.834Z,81.84
2022-09-02T00:20:40.922Z,81.85
2022-09-02T00:23:08.336Z,82.18
2022-09-02T00:25:39.212Z,82.78
2022-09-02T00:28:06.970Z,82.30
2022-09-02T00:30:34.826Z,81.92
2022-09-02T00:33:01.674Z,82.01
2022-09-02T00:35:28.187Z,82.33
2022-09-02T00:37:54.721Z,82.45
2022-09-02T00:40:23.233Z,81.91
2022-09-02T00:42:50.974Z,81.45
2022-09-02T00:45:18.562Z,81.26
2022-09-02T00:47:50.508Z,81.48
2022-09-02T00:50:21.015Z,82.45
2022-09-02T00:52:58.896Z,82.13
2022-09-02T00:55:33.217Z,80.91
2022-09-02T00:58:09.543Z,82.34
2022-09-02T01:00:39.540Z,82.47
2022-09-02T01:03:09.787Z,82.84
2022-09-02T01:05:43.761Z,81.51
2022-09-02T01:08:10.560Z,80.65
2022-09-02T01:10:37.214Z,81.46
2022-09-02T01:13:10.757Z,82.92
2022-09-02T01:15:41.752Z,82.16
2022-09-02T01:18:10.961Z,81.69
2022-09-02T01:20:37.604Z,81.65
2022-09-02T01:23:04.129Z,80.87
2022-09-02T01:25:33.572Z,79.38
2022-09-02T01:28:09.390Z,81.17
2022-09-02T01:30:41.357Z,81.82
2022-09-02T01:33:08.445Z,82.26
2022-09-02T01:35:35.733Z,82.51
2022-09-02T01:38:03.528Z,82.91
2022-09-02T01:40:32.218Z,83.07
2022-09-02T01:43:11.897Z,82.40
2022-09-02T01:45:40.061Z,82.07
2022-09-02T01:48:08.930Z,82.47
2022-09-02T01:50:46.857Z,83.13
2022-09-02T01:53:14.116Z,83.71
2022-09-02T01:55:40.842Z,82.80
2022-09-02T01:58:08.174Z,82.77
2022-09-02T02:00:35.482Z,82.50
2022-09-02T02:03:02.000Z,82.68
2022-09-02T02:05:29.969Z,82.73
2022-09-02T02:07:56.491Z,82.53
2022-09-02T02:10:23.863Z,82.96
2022-09-02T02:12:50.683Z,82.48
2022-09-02T02:15:19.091Z,82.66
2022-09-02T02:17:46.618Z,82.29
2022-09-02T02:20:15.975Z,83.23
2022-09-02T02:22:43.909Z,84.07
2022-09-02T02:25:12.100Z,83.30
2022-09-02T02:27:38.600Z,84.07
2022-09-02T02:30:07.775Z,83.41
2022-09-02T02:32:34.665Z,83.28
2022-09-02T02:35:01.444Z,83.61
2022-09-02T02:37:27.984Z,82.85
2022-09-02T02:39:56.017Z,83.19
2022-09-02T02:42:22.473Z,83.80
2022-09-02T02:44:48.948Z,83.55
2022-09-02T02:47:16.303Z,84.06
2022-09-02T02:49:44.364Z,83.87
2022-09-02T02:52:12.195Z,84.05
2022-09-02T02:54:39.640Z,85.04
2022-09-02T02:57:07.060Z,85.07
2022-09-02T02:59:33.695Z,85.45
2022-09-02T03:02:00.282Z,85.84
2022-09-02T03:04:26.873Z,84.77
2022-09-02T03:06:53.332Z,84.68
2022-09-02T03:09:20.404Z,84.28
2022-09-02T03:11:47.784Z,85.06
2022-09-02T03:14:14.940Z,83.94
2022-09-02T03:16:41.749Z,83.53
2022-09-02T03:19:08.288Z,84.81
2022-09-02T03:21:38.825Z,85.50
2022-09-02T03:24:06.111Z,85.60
2022-09-02T03:26:32.969Z,83.97
2022-09-02T03:28:59.540Z,83.13
2022-09-02T03:31:27.548Z,83.90
2022-09-02T03:33:55.001Z,83.66
2022-09-02T03:36:25.885Z,84.52
2022-09-02T03:38:53.282Z,84.29
2022-09-02T03:41:20.041Z,84.12
2022-09-02T03:43:47.089Z,84.76
2022-09-02T03:46:14.091Z,84.22
2022-09-02T03:48:41.000Z,86.04
2022-09-02T03:51:07.998Z,85.96
2022-09-02T03:53:35.219Z,85.85
2022-09-02T03:56:12.005Z,86.24
2022-09-02T03:58:40.266Z,86.55
2022-09-02T04:01:08.825Z,86.64
2022-09-02T04:03:35.265Z,86.72
2022-09-02T04:06:01.708Z,85.80
2022-09-02T04:08:28.233Z,85.23
2022-09-02T04:10:56.277Z,84.60
2022-09-02T04:13:22.940Z,83.90
2022-09-02T04:15:49.684Z,83.35
2022-09-02T04:18:17.767Z,83.85
2022-09-02T04:20:44.823Z,85.22
2022-09-02T04:23:11.824Z,86.61
2022-09-02T04:25:41.223Z,85.76
2022-09-02T04:28:07.936Z,85.81
2022-09-02T04:30:34.476Z,85.62
2022-09-02T04:33:00.888Z,86.98
2022-09-02T04:35:27.353Z,87.56
2022-09-02T04:37:54.017Z,87.11
2022-09-02T04:40:20.495Z,86.40
2022-09-02T04:42:47.273Z,85.90
2022-09-02T04:45:14.445Z,86.65
2022-09-02T04:47:40.876Z,86.08
2022-09-02T04:50:07.677Z,85.89
2022-09-02T04:52:34.093Z,87.31
2022-09-02T04:55:00.568Z,87.36
2022-09-02T04:57:27.009Z,86.96
2022-09-02T04:59:53.731Z,86.97
2022-09-02T05:02:20.583Z,87.19
2022-09-02T05:04:47.170Z,86.97
2022-09-02T05:07:14.089Z,86.86
2022-09-02T05:09:40.506Z,87.14
2022-09-02T05:12:07.311Z,86.79
2022-09-02T05:14:33.764Z,87.16
2022-09-02T05:17:06.679Z,87.16
2022-09-02T05:19:34.234Z,87.10
2022-09-02T05:22:01.810Z,88.04
2022-09-02T05:24:29.525Z,88.54
2022-09-02T05:26:55.981Z,88.47
2022-09-02T05:29:23.765Z,88.62
2022-09-02T05:31:50.372Z,88.64
2022-09-02T05:34:17.469Z,88.87
2022-09-02T05:36:44.387Z,88.93
2022-09-02T05:39:11.141Z,88.83
2022-09-02T05:41:37.715Z,88.97
2022-09-02T05:44:05.563Z,89.06
2022-09-02T05:46:32.978Z,89.73
2022-09-02T05:49:17.157Z,89.57
2022-09-02T05:51:53.113Z,89.60
2022-09-02T05:54:31.343Z,90.44
2022-09-02T05:57:01.049Z,92.09
2022-09-02T05:59:30.016Z,90.95
2022-09-02T06:01:58.251Z,90.11
2022-09-02T06:04:26.078Z,90.81
2022-09-02T06:06:52.651Z,89.65
2022-09-02T06:09:22.075Z,90.04
2022-09-02T06:11:51.995Z,89.36
2022-09-02T06:14:21.916Z,89.20
2022-09-02T06:16:50.369Z,89.08
2022-09-02T06:19:20.155Z,89.48
2022-09-02T06:21:47.545Z,89.28
2022-09-02T06:24:14.716Z,89.67
2022-09-02T06:26:41.792Z,89.58
2022-09-02T06:29:09.703Z,88.68
2022-09-02T06:31:36.517Z,87.76
2022-09-02T06:34:04.642Z,88.63
2022-09-02T06:36:31.781Z,87.96
2022-09-02T06:38:59.612Z,87.93
2022-09-02T06:41:29.225Z,87.43
2022-09-02T06:43:58.038Z,87.26
2022-09-02T06:46:30.661Z,87.26
2022-09-02T06:48:57.272Z,87.56
2022-09-02T06:51:45.191Z,86.88
2022-09-02T06:54:15.876Z,86.98
2022-09-02T06:56:49.106Z,86.33
2022-09-02T06:59:17.429Z,86.16
2022-09-02T07:01:45.108Z,86.29
2022-09-02T07:04:30.856Z,85.96
2022-09-02T07:06:57.920Z,85.65
2022-09-02T07:09:32.358Z,84.96
2022-09-02T07:12:04.175Z,85.42
2022-09-02T07:14:36.416Z,85.05
2022-09-02T07:17:03.014Z,83.84
2022-09-02T07:19:29.492Z,83.69
2022-09-02T07:21:56.108Z,82.54
2022-09-02T07:24:23.828Z,82.93
2022-09-02T07:26:50.359Z,82.62
2022-09-02T07:29:22.407Z,82.51
2022-09-02T07:31:49.161Z,82.30
2022-09-02T07:34:16.353Z,82.09
2022-09-02T07:36:45.746Z,80.60
2022-09-02T07:39:14.184Z,80.50
2022-09-02T07:41:43.856Z,80.85
2022-09-02T07:44:10.801Z,80.82
2022-09-02T07:46:38.099Z,79.94
2022-09-02T07:49:09.154Z,79.99
2022-09-02T07:51:38.007Z,80.88
2022-09-02T07:54:05.894Z,79.71
2022-09-02T07:56:32.645Z,79.83
2022-09-02T07:58:59.176Z,79.71
2022-09-02T08:01:26.173Z,79.66
2022-09-02T08:03:53.723Z,79.75
2022-09-02T08:06:33.828Z,78.75
2022-09-02T08:09:06.904Z,78.35
2022-09-02T08:11:39.265Z,76.40
2022-09-02T08:14:11.994Z,76.76
2022-09-02T08:16:39.536Z,77.52
2022-09-02T08:19:08.058Z,76.54
2022-09-02T08:21:35.278Z,77.12
2022-09-02T08:24:01.745Z,76.94
2022-09-02T08:26:29.905Z,77.78
2022-09-02T08:28:56.371Z,77.66
2022-09-02T08:31:22.969Z,77.12
2022-09-02T08:33:49.453Z,77.12
2022-09-02T08:36:15.923Z,76.76
2022-09-02T08:38:42.962Z,76.07
2022-09-02T08:41:41.452Z,77.09
2022-09-02T08:44:12.717Z,77.01
2022-09-02T08:46:39.454Z,76.07
2022-09-02T08:49:18.887Z,75.86
2022-09-02T08:52:01.519Z,75.19
2022-09-02T08:54:34.600Z,74.48
2022-09-02T08:57:01.116Z,74.98
2022-09-02T08:59:30.774Z,74.13
2022-09-02T09:02:30.677Z,74.12
2022-09-02T09:05:14.443Z,73.85
2022-09-02T09:07:59.754Z,74.44
2022-09-02T09:10:57.008Z,73.98
2022-09-02T09:13:53.088Z,72.64
2022-09-02T09:16:40.185Z,72.31
2022-09-02T09:19:14.497Z,71.87
2022-09-02T09:21:42.771Z,71.62
2022-09-02T09:24:28.765Z,71.18
2022-09-02T09:26:55.412Z,71.17
2022-09-02T09:29:22.282Z,70.83
2022-09-02T09:31:55.781Z,71.77
2022-09-02T09:34:22.306Z,70.23
2022-09-02T09:36:53.517Z,69.33
2022-09-02T09:39:30.086Z,69.98
2022-09-02T09:41:59.202Z,69.41
2022-09-02T09:44:45.728Z,68.45
2022-09-02T09:47:21.225Z,67.39
2022-09-02T09:49:49.921Z,67.99
2022-09-02T09:52:28.172Z,67.78
2022-09-02T09:55:14.497Z,68.11
2022-09-02T09:57:44.733Z,68.16
2022-09-02T10:00:26.347Z,66.67
2022-09-02T10:02:56.703Z,66.14
2022-09-02T10:05:36.767Z,65.52
2022-09-02T10:08:15.572Z,65.58
2022-09-02T10:11:02.223Z,64.79
2022-09-02T10:13:34.700Z,63.25
2022-09-02T10:16:32.750Z,64.38
2022-09-02T10:19:11.641Z,59.82
2022-09-02T10:22:15.747Z,58.62
2022-09-02T10:25:09.775Z,59.59
2022-09-02T10:27:55.872Z,60.66
2022-09-02T10:30:24.397Z,60.97
2022-09-02T10:33:18.931Z,59.06
2022-09-02T10:36:28.598Z,57.63
2022-09-02T10:39:04.308Z,58.18
2022-09-02T10:41:48.270Z,57.77
2022-09-02T10:44:33.941Z,58.10
2022-09-02T10:47:10.447Z,58.21
2022-09-02T10:49:45.980Z,55.70
2022-09-02T10:52:35.765Z,57.59
2022-09-02T10:55:11.240Z,57.36
2022-09-02T10:57:54.417Z,55.00
2022-09-02T11:00:23.099Z,54.87
2022-09-02T11:03:07.632Z,56.64
2022-09-02T11:05:57.339Z,55.21
2022-09-02T11:08:45.775Z,56.37
2022-09-02T11:11:36.977Z,54.20
2022-09-02T11:14:15.559Z,55.34
2022-09-02T11:16:49.448Z,56.77
2022-09-02T11:19:23.458Z,54.52
2022-09-02T11:22:03.356Z,56.34
2022-09-02T11:24:55.429Z,53.79
2022-09-02T11:27:42.414Z,53.52
2022-09-02T11:30:26.700Z,55.73
2022-09-02T11:33:05.222Z,54.95
2022-09-02T11:35:39.384Z,53.96
2022-09-02T11:38:19.222Z,53.18
2022-09-02T11:41:32.933Z,53.77
2022-09-02T11:43:35.738Z,54.17
2022-09-02T11:46:14.378Z,54.03
2022-09-02T11:49:13.732Z,51.79
2022-09-02T11:52:08.143Z,53.81
2022-09-02T11:54:41.477Z,54.08
2022-09-02T11:57:13.946Z,54.51
2022-09-02T11:59:52.885Z,53.09
2022-09-02T12:02:41.615Z,53.40
2022-09-02T12:05:30.144Z,54.32
2022-09-02T12:08:04.353Z,53.31
2022-09-02T12:10:43.547Z,53.12
2022-09-02T12:13:31.562Z,53.35
2022-09-02T12:16:19.492Z,54.21
2022-09-02T12:19:08.452Z,53.55
2022-09-02T12:21:35.836Z,52.06
2022-09-02T12:24:02.197Z,53.94
2022-09-02T12:26:38.445Z,53.80
2022-09-02T12:29:20.542Z,54.97
2022-09-02T12:31:49.083Z,52.88
2022-09-02T12:34:21.524Z,52.10
2022-09-02T12:36:54.316Z,53.16
2022-09-02T12:39:27.253Z,53.73
2022-09-02T12:42:12.660Z,51.92
2022-09-02T12:45:29.156Z,52.94
2022-09-02T12:48:01.277Z,51.26
2022-09-02T12:50:32.340Z,52.45
2022-09-02T12:53:08.009Z,52.31
2022-09-02T12:55:36.367Z,51.52
2022-09-02T12:58:19.663Z,52.68
2022-09-02T13:00:52.333Z,54.05
2022-09-02T13:03:26.995Z,52.72
2022-09-02T13:05:57.836Z,52.39
2022-09-02T13:08:42.488Z,51.71
2022-09-02T13:11:15.002Z,51.33
2022-09-02T13:14:20.586Z,51.20
2022-09-02T13:16:56.383Z,51.31
2022-09-02T13:19:41.153Z,49.35
2022-09-02T13:22:19.779Z,51.76
2022-09-02T13:25:22.185Z,51.94
2022-09-02T13:28:34.511Z,53.29
2022-09-02T13:31:16.527Z,50.84
2022-09-02T13:33:43.532Z,51.18
2022-09-02T13:36:10.113Z,51.69
2022-09-02T13:38:38.829Z,51.98
2022-09-02T13:41:05.659Z,52.72
2022-09-02T13:43:32.253Z,51.13
2022-09-02T13:46:02.785Z,51.58
2022-09-02T13:48:32.779Z,53.34
2022-09-02T13:51:13.827Z,52.06
2022-09-02T13:53:45.705Z,51.62
2022-09-02T13:56:30.973Z,52.13
2022-09-02T13:58:57.875Z,53.23
2022-09-02T14:01:29.504Z,51.22
2022-09-02T14:03:58.928Z,50.75
2022-09-02T14:06:29.656Z,51.70
2022-09-02T14:08:59.802Z,50.34
2022-09-02T14:11:28.024Z,51.80
2022-09-02T14:13:56.156Z,49.59
2022-09-02T14:16:34.511Z,51.65
2022-09-02T14:19:10.717Z,51.57
2022-09-02T14:21:43.932Z,51.02
2022-09-02T14:24:13.836Z,51.08
2022-09-02T14:26:46.575Z,51.86
2022-09-02T14:29:16.443Z,51.97
2022-09-02T14:31:43.679Z,52.16
2022-09-02T14:34:36.745Z,52.11
2022-09-02T14:37:26.142Z,50.24
2022-09-02T14:40:12.937Z,51.40
2022-09-02T14:42:57.318Z,50.75
2022-09-02T14:45:47.766Z,51.37
2022-09-02T14:48:23.399Z,52.32
2022-09-02T14:51:02.111Z,50.88
2022-09-02T14:53:29.077Z,49.78
2022-09-02T14:55:57.151Z,52.33
2022-09-02T14:58:28.156Z,51.40
2022-09-02T15:01:04.633Z,51.02
2022-09-02T15:03:36.770Z,49.08
2022-09-02T15:06:03.361Z,49.24
2022-09-02T15:08:29.848Z,49.82
2022-09-02T15:10:59.781Z,49.86
2022-09-02T15:13:32.460Z,49.68
2022-09-02T15:15:59.570Z,50.77
2022-09-02T15:18:26.399Z,49.95
2022-09-02T15:20:54.105Z,49.57
2022-09-02T15:23:21.565Z,48.63
2022-09-02T15:25:48.005Z,50.27
2022-09-02T15:28:14.435Z,50.61
2022-09-02T15:30:41.206Z,49.99
2022-09-02T15:33:09.147Z,50.47
2022-09-02T15:35:43.113Z,51.83
2022-09-02T15:38:09.533Z,51.23
2022-09-02T15:40:35.979Z,50.44
2022-09-02T15:43:02.401Z,52.20
2022-09-02T15:45:28.807Z,49.88
2022-09-02T15:47:59.340Z,51.59
2022-09-02T15:50:27.493Z,51.24
2022-09-02T15:52:55.848Z,52.80
2022-09-02T15:55:26.388Z,51.53
2022-09-02T15:57:56.358Z,51.34
2022-09-02T16:00:23.366Z,50.86
2022-09-02T16:02:54.474Z,50.83
2022-09-02T16:05:21.389Z,51.90
2022-09-02T16:07:48.561Z,52.65
2022-09-02T16:10:15.242Z,51.85
2022-09-02T16:12:42.099Z,52.22
2022-09-02T16:15:09.034Z,52.60
2022-09-02T16:17:36.020Z,52.91
2022-09-02T16:20:03.853Z,52.95
2022-09-02T16:22:30.262Z,52.81
2022-09-02T16:24:56.672Z,53.11
2022-09-02T16:27:43.093Z,53.34
2022-09-02T16:30:09.887Z,53.43
2022-09-02T16:32:37.650Z,53.60
2022-09-02T16:35:04.297Z,53.67
2022-09-02T16:37:30.751Z,53.56
2022-09-02T16:39:57.173Z,55.01
2022-09-02T16:42:24.713Z,54.06
2022-09-02T16:44:51.819Z,54.83
2022-09-02T16:47:18.631Z,56.06
2022-09-02T16:49:46.306Z,56.14
2022-09-02T16:52:12.760Z,55.14
2022-09-02T16:54:40.940Z,56.05
2022-09-02T16:57:07.638Z,56.59
2022-09-02T16:59:34.083Z,57.16
2022-09-02T17:02:00.834Z,57.28
2022-09-02T17:04:27.379Z,57.02
2022-09-02T17:06:54.010Z,57.38
2022-09-02T17:09:20.793Z,58.33
2022-09-02T17:11:47.264Z,61.77
2022-09-02T17:14:16.417Z,63.10
2022-09-02T17:16:45.989Z,62.84
2022-09-02T17:19:21.021Z,63.55
2022-09-02T17:21:50.859Z,65.05
2022-09-02T17:24:18.967Z,65.15
2022-09-02T17:26:50.589Z,64.84
2022-09-02T17:29:47.023Z,65.84
2022-09-02T17:32:06.474Z,65.54
2022-09-02T17:34:33.766Z,66.35
2022-09-02T17:37:00.413Z,66.66
2022-09-02T17:39:26.906Z,66.26
2022-09-02T17:41:59.474Z,66.27
2022-09-02T17:44:35.744Z,67.40
2022-09-02T17:47:06.428Z,67.81
2022-09-02T17:49:33.749Z,68.20
2022-09-02T17:52:00.176Z,69.18
2022-09-02T17:54:30.583Z,69.66
2022-09-02T17:57:07.585Z,69.70
2022-09-02T18:00:03.773Z,70.20
2022-09-02T18:02:36.450Z,70.65
2022-09-02T18:05:28.885Z,70.69
2022-09-02T18:08:31.716Z,71.85
2022-09-02T18:11:03.019Z,72.18
2022-09-02T18:13:43.627Z,71.67
2022-09-02T18:16:20.907Z,71.65
2022-09-02T18:19:19.444Z,72.06
2022-09-02T18:21:57.857Z,73.03
2022-09-02T18:24:36.277Z,72.05
2022-09-02T18:27:09.711Z,73.22
2022-09-02T18:30:06.570Z,73.39
2022-09-02T18:32:51.909Z,74.11
2022-09-02T18:35:43.425Z,74.20
2022-09-02T18:38:09.922Z,74.75
2022-09-02T18:40:55.063Z,74.20
2022-09-02T18:43:37.141Z,73.36
2022-09-02T18:46:05.376Z,74.46
2022-09-02T18:48:35.663Z,74.66
2022-09-02T18:51:25.042Z,74.97
2022-09-02T18:53:55.860Z,75.39
2022-09-02T18:56:28.728Z,75.69
2022-09-02T18:59:02.160Z,76.28
2022-09-02T19:01:34.085Z,75.82
2022-09-02T19:04:01.116Z,76.33
2022-09-02T19:06:34.371Z,76.48
2022-09-02T19:09:11.451Z,76.63
2022-09-02T19:11:39.313Z,76.81
2022-09-02T19:14:08.752Z,77.39
2022-09-02T19:16:38.824Z,77.30
2022-09-02T19:19:06.476Z,76.98
2022-09-02T19:21:38.451Z,76.54
2022-09-02T19:24:09.296Z,77.45
2022-09-02T19:26:37.886Z,77.95
2022-09-02T19:29:07.332Z,77.00
2022-09-02T19:31:35.357Z,78.37
2022-09-02T19:34:04.270Z,78.21
2022-09-02T19:36:32.752Z,77.48
2022-09-02T19:39:00.056Z,77.58
2022-09-02T19:41:28.053Z,78.23
2022-09-02T19:43:54.822Z,77.91
2022-09-02T19:46:55.796Z,77.67
2022-09-02T19:49:08.389Z,77.81
2022-09-02T19:51:34.931Z,77.31
2022-09-02T19:54:01.449Z,77.27
2022-09-02T19:56:28.053Z,77.58
2022-09-02T19:58:54.524Z,77.53
2022-09-02T20:01:21.048Z,77.33
2022-09-02T20:03:47.533Z,77.29
2022-09-02T20:06:13.936Z,77.55
2022-09-02T20:08:40.351Z,77.82
2022-09-02T20:11:07.241Z,78.41
2022-09-02T20:13:40.091Z,78.73
2022-09-02T20:16:20.326Z,78.59
2022-09-02T20:18:48.726Z,79.29
2022-09-02T20:21:27.312Z,79.22
2022-09-02T20:24:01.063Z,80.12
2022-09-02T20:26:39.585Z,80.12
2022-09-02T20:29:09.015Z,80.07
2022-09-02T20:31:38.761Z,79.78
2022-09-02T20:34:28.101Z,79.99
2022-09-02T20:37:29.413Z,79.92
2022-09-02T20:40:15.220Z,80.26
2022-09-02T20:43:03.116Z,80.40
2022-09-02T20:45:40.392Z,79.83
2022-09-02T20:48:38.109Z,79.58
2022-09-02T20:51:07.391Z,80.88
2022-09-02T20:54:01.646Z,80.54
2022-09-02T20:56:50.336Z,81.17
2022-09-02T20:59:26.683Z,81.23
2022-09-02T21:01:54.751Z,82.67
2022-09-02T21:04:28.987Z,81.09
2022-09-02T21:07:03.011Z,80.70
2022-09-02T21:09:36.721Z,81.38
2022-09-02T21:12:36.992Z,80.21
2022-09-02T21:15:11.052Z,81.57
2022-09-02T21:17:49.643Z,82.13
2022-09-02T21:20:47.858Z,81.13
2022-09-02T21:23:31.118Z,80.63
2022-09-02T21:26:03.839Z,80.32
2022-09-02T21:28:40.613Z,80.36
2022-09-02T21:31:19.247Z,80.96
2022-09-02T21:33:46.142Z,81.64
2022-09-02T21:36:18.292Z,81.34
2022-09-02T21:38:45.929Z,81.77
2022-09-02T21:41:27.535Z,81.82
2022-09-02T21:44:28.127Z,80.36
2022-09-02T21:47:06.869Z,79.57
2022-09-02T21:50:01.013Z,80.31
2022-09-02T21:52:51.034Z,81.30
2022-09-02T21:55:38.032Z,82.47
2022-09-02T21:58:23.351Z,82.43
2022-09-02T22:01:00.836Z,82.25
2022-09-02T22:03:37.033Z,81.21
2022-09-02T22:06:25.165Z,81.45
2022-09-02T22:09:08.679Z,82.28
2022-09-02T22:11:39.688Z,82.94
2022-09-02T22:14:16.322Z,82.40
2022-09-02T22:16:53.282Z,83.38
2022-09-02T22:19:23.843Z,83.36
2022-09-02T22:21:55.072Z,82.95
2022-09-02T22:24:29.068Z,82.77
2022-09-02T22:27:02.821Z,83.02
2022-09-02T22:29:44.055Z,83.20
2022-09-02T22:32:14.462Z,83.01
2022-09-02T22:34:49.488Z,82.23
2022-09-02T22:37:24.137Z,82.04
2022-09-02T22:39:53.182Z,83.09
2022-09-02T22:42:34.064Z,82.62
2022-09-02T22:45:25.723Z,80.32
2022-09-02T22:48:40.352Z,82.18
2022-09-02T22:51:32.301Z,83.23
2022-09-02T22:53:58.719Z,83.39
2022-09-02T22:56:43.840Z,83.28
2022-09-02T22:59:25.447Z,83.09
2022-09-02T23:02:20.576Z,83.27
2022-09-02T23:05:02.810Z,84.04
2022-09-02T23:07:32.533Z,82.50
2022-09-02T23:10:09.344Z,80.34
2022-09-02T23:12:44.653Z,81.65
2022-09-02T23:15:22.560Z,83.46
2022-09-02T23:18:08.594Z,83.73
2022-09-02T23:20:51.728Z,82.34
2022-09-02T23:23:40.378Z,82.72
2022-09-02T23:26:20.804Z,84.07
2022-09-02T23:29:05.346Z,84.45
2022-09-02T23:31:31.874Z,84.60
2022-09-02T23:34:15.893Z,85.01
2022-09-02T23:36:51.293Z,84.85
2022-09-02T23:39:43.024Z,85.07
2022-09-02T23:42:10.587Z,85.33
2022-09-02T23:44:37.168Z,85.03
2022-09-02T23:47:26.345Z,83.76
2022-09-02T23:50:11.351Z,83.14
2022-09-02T23:52:44.292Z,83.95
2022-09-02T23:55:51.863Z,83.61
2022-09-02T23:58:36.397Z,83.85
